Ancramdale, New York
Current Conditions -  °F | °C
As of 8:53 PM on Sunday 25 Jan 2015 (Local Time) from KPOU Reporting Station
Clear Clear  
Wind Chill: 14°   Ceiling: Unl
Heat Index: 23°   Visibility: 10mi
Dew Point:   Wind: 8mph
Humidity: 44%   Direction: 40°NE
Pressure: 29.99"   Gusts: NA
Location:  42.02°N, 73.59°W
Report Text: KPOU 260153Z 04007KT 10SM CLR M05/M16 A2999 RMK AO2 SLP155 T10501156
Loading
Personal Weather Stations






























Interactive Weather Map New forecast layout! Learn more

10-Day Weather Forecast

Advertisements
Track Severe Weather on mobile